Time;durP1;ratioP1;P1;durP2;ratioP2;P2;SDS_P1;SDS_P2;PMS_P1;PMS_P2;Temp;Humidity;BMP_temperature;BMP_pressure;BME280_temperature;BME280_humidity;BME280_pressure;Samples;Min_cycle;Max_cycle;Signal;HPM_P1;HPM_P2
2022/06/06 00:01:13;;;;;;;4.72;3.53;;;;;;;14.00;76.60;99556.19;5012792;28;20476;-62
2022/06/06 00:03:39;;;;;;;3.97;3.58;;;;;;;13.87;76.18;99543.63;5012683;28;20053;-62
2022/06/06 00:06:10;;;;;;;5.30;4.00;;;;;;;13.85;76.25;99540.22;5012804;28;20137;-62
2022/06/06 00:08:38;;;;;;;5.07;3.75;;;;;;;13.91;75.68;99549.53;5012678;28;20387;-62
2022/06/06 00:11:04;;;;;;;7.93;4.00;;;;;;;13.85;76.32;99540.22;5012597;28;20057;-63
2022/06/06 00:13:31;;;;;;;6.45;3.67;;;;;;;13.95;75.32;99551.13;5011296;28;20045;-62
2022/06/06 00:15:57;;;;;;;9.35;3.95;;;;;;;13.85;76.25;99544.56;5011354;28;20811;-63
2022/06/06 00:18:23;;;;;;;7.20;4.32;;;;;;;13.85;77.11;99539.38;5012579;28;20384;-62
2022/06/06 00:20:48;;;;;;;5.80;4.25;;;;;;;13.90;76.33;99547.88;5012229;28;20036;-62
2022/06/06 00:23:14;;;;;;;4.97;4.22;;;;;;;13.87;76.16;99540.19;5012640;28;20033;-62
2022/06/06 00:25:39;;;;;;;5.40;4.07;;;;;;;13.87;76.86;99541.03;5012368;28;20491;-62
2022/06/06 00:28:05;;;;;;;6.72;4.22;;;;;;;13.81;77.31;99546.47;5012082;28;20489;-62
2022/06/06 00:30:31;;;;;;;4.93;3.95;;;;;;;13.82;76.15;99542.94;4994002;28;20402;-60
2022/06/06 00:35:41;;;;;;;4.45;3.53;;;;;;;13.84;76.53;99545.47;5012445;28;20029;-62
2022/06/06 00:38:07;;;;;;;4.18;3.22;;;;;;;13.86;76.34;99546.28;5011252;28;20463;-62
2022/06/06 00:40:33;;;;;;;4.45;3.88;;;;;;;13.87;76.85;99545.38;5012222;28;20029;-62
2022/06/06 00:43:00;;;;;;;7.38;3.58;;;;;;;13.79;77.51;99536.06;5011537;28;20087;-62
2022/06/06 00:45:36;;;;;;;4.95;3.88;;;;;;;13.85;76.68;99553.22;5011889;28;20386;-62
2022/06/06 00:48:11;;;;;;;4.82;3.30;;;;;;;13.83;76.57;99557.66;5012032;28;20661;-62
2022/06/06 00:50:54;;;;;;;5.97;4.00;;;;;;;13.88;76.62;99555.75;5012117;28;20034;-62
2022/06/06 00:53:31;;;;;;;4.32;3.67;;;;;;;13.85;77.30;99563.63;5012231;28;20057;-62
2022/06/06 00:56:02;;;;;;;3.88;3.38;;;;;;;13.52;77.04;99511.91;4992237;28;20026;-62
2022/06/06 00:58:30;;;;;;;8.80;6.23;;;;;;;13.59;77.46;99517.75;5009284;28;20030;-62
2022/06/06 01:00:56;;;;;;;11.90;9.82;;;;;;;13.79;77.35;99554.28;5011985;28;20026;-62
2022/06/06 01:03:25;;;;;;;5.50;4.30;;;;;;;13.70;76.28;99541.63;5012186;28;20058;-62
2022/06/06 01:05:54;;;;;;;6.00;3.83;;;;;;;13.81;77.84;99552.50;5012008;28;20445;-62
2022/06/06 01:08:20;;;;;;;5.07;3.67;;;;;;;13.84;77.32;99548.06;5012136;28;20398;-62
2022/06/06 01:10:47;;;;;;;6.55;3.80;;;;;;;13.82;78.11;99558.53;5011975;28;20417;-62
2022/06/06 01:13:16;;;;;;;4.32;3.92;;;;;;;13.48;77.65;99499.94;5011792;28;20025;-62
2022/06/06 01:15:57;;;;;;;5.40;3.25;;;;;;;13.53;77.14;99507.59;5011829;28;20061;-62
2022/06/06 01:18:53;;;;;;;4.13;3.27;;;;;;;13.76;77.66;99550.97;5009638;28;20104;-62
2022/06/06 01:21:21;;;;;;;5.47;3.30;;;;;;;13.79;78.02;99550.84;5011514;28;20430;-62
2022/06/06 01:23:56;;;;;;;4.43;3.30;;;;;;;13.80;78.23;99540.38;5011996;28;20030;-61
2022/06/06 01:26:37;;;;;;;3.85;3.30;;;;;;;13.79;77.76;99556.91;5011135;28;20037;-62
2022/06/06 01:29:25;;;;;;;7.30;2.97;;;;;;;13.75;76.68;99551.88;5002752;28;20477;-62
2022/06/06 01:32:14;;;;;;;7.10;3.53;;;;;;;13.79;77.80;99558.66;5006068;28;20022;-62
2022/06/06 01:34:42;;;;;;;3.47;3.17;;;;;;;13.71;76.83;99545.94;5000297;28;20542;-62
2022/06/06 01:37:43;;;;;;;3.78;3.38;;;;;;;13.80;78.26;99560.38;5005803;28;20034;-62
2022/06/06 01:40:14;;;;;;;3.77;3.00;;;;;;;13.55;76.91;99518.78;4951211;29;20028;-62
2022/06/06 01:43:04;;;;;;;4.90;3.20;;;;;;;13.49;77.01;99509.44;5001847;28;20034;-63
2022/06/06 01:45:36;;;;;;;3.78;3.33;;;;;;;13.82;77.51;99558.53;5009335;28;20108;-63
2022/06/06 01:48:13;;;;;;;4.15;2.95;;;;;;;13.49;76.89;99509.44;4998642;28;20037;-63
2022/06/06 01:50:41;;;;;;;3.50;3.20;;;;;;;13.83;76.76;99556.81;5007609;28;20450;-63
2022/06/06 01:53:09;;;;;;;3.47;3.17;;;;;;;13.82;76.79;99558.53;5015241;28;20030;-62
2022/06/06 01:55:38;;;;;;;4.30;3.30;;;;;;;13.51;76.53;99507.66;5012905;28;20028;-62
2022/06/06 01:58:07;;;;;;;4.07;3.25;;;;;;;13.85;77.79;99558.44;5013468;28;20087;-63
2022/06/06 02:00:35;;;;;;;5.70;3.03;;;;;;;14.00;76.91;99548.38;5015098;28;20495;-63
2022/06/06 02:03:02;;;;;;;5.50;3.80;;;;;;;13.98;76.61;99558.84;5014802;28;20030;-63
2022/06/06 02:05:28;;;;;;;3.70;3.40;;;;;;;13.95;77.45;99552.00;5015127;28;20037;-64
2022/06/06 02:07:53;;;;;;;6.40;3.38;;;;;;;14.01;77.28;99550.91;5013414;28;20431;-62
2022/06/06 02:10:20;;;;;;;5.25;3.22;;;;;;;14.03;76.80;99564.72;5013172;28;20026;-63
2022/06/06 02:12:46;;;;;;;5.15;3.25;;;;;;;14.05;76.84;99549.03;5014907;28;20108;-61
2022/06/06 02:15:15;;;;;;;3.40;3.10;;;;;;;13.84;76.94;99501.22;5014923;28;20108;-62
2022/06/06 02:17:41;;;;;;;4.30;3.30;;;;;;;14.20;76.77;99552.81;5014448;28;20026;-61
2022/06/06 02:20:09;;;;;;;3.78;3.30;;;;;;;14.15;77.06;99558.19;5010590;28;20033;-61
2022/06/06 02:22:35;;;;;;;5.38;3.40;;;;;;;14.15;77.37;99553.84;5005878;28;20026;-61
2022/06/06 02:25:02;;;;;;;5.90;3.75;;;;;;;14.22;76.43;99557.03;5013335;28;20041;-61
2022/06/06 02:27:28;;;;;;;4.95;3.60;;;;;;;14.38;75.69;99556.44;5013337;28;20144;-61
2022/06/06 02:29:54;;;;;;;3.63;3.28;;;;;;;14.42;76.08;99555.41;5014564;28;20029;-61
2022/06/06 02:32:20;;;;;;;3.40;2.83;;;;;;;14.50;75.84;99551.59;5014686;28;20029;-61
2022/06/06 02:34:46;;;;;;;3.35;2.80;;;;;;;14.62;75.34;99555.53;5014412;28;20096;-61
2022/06/06 02:37:11;;;;;;;3.90;3.10;;;;;;;14.66;74.62;99553.63;5014209;28;20052;-62
2022/06/06 02:39:37;;;;;;;6.68;3.83;;;;;;;14.67;75.07;99560.53;5014156;28;20026;-62
2022/06/06 02:42:02;;;;;;;5.10;3.60;;;;;;;14.64;74.96;99556.28;5014249;28;20042;-61
2022/06/06 02:44:28;;;;;;;5.15;3.70;;;;;;;14.70;74.09;99551.75;5014254;28;20053;-61
2022/06/06 02:46:53;;;;;;;4.13;3.63;;;;;;;14.83;73.46;99568.59;5013992;28;20038;-62
2022/06/06 02:49:19;;;;;;;4.80;3.38;;;;;;;14.89;74.07;99570.94;5013945;28;20050;-61
2022/06/06 02:51:45;;;;;;;4.47;3.25;;;;;;;14.85;74.44;99577.22;5014046;28;20061;-61
2022/06/06 02:54:10;;;;;;;3.72;3.42;;;;;;;14.80;74.79;99560.91;5013754;28;20039;-61
2022/06/06 02:56:36;;;;;;;6.95;3.70;;;;;;;14.81;75.04;99573.88;5013934;28;20030;-61
2022/06/06 02:59:04;;;;;;;3.70;3.30;;;;;;;14.87;74.92;99583.19;5013718;28;20022;-60
2022/06/06 03:01:31;;;;;;;6.32;3.40;;;;;;;14.92;75.21;99580.41;5014132;28;20498;-61
2022/06/06 03:03:56;;;;;;;4.93;3.30;;;;;;;14.93;75.71;99585.53;5013853;28;20054;-62
2022/06/06 03:07:01;;;;;;;4.25;3.63;;;;;;;14.74;75.07;99550.72;5013738;28;20510;-62
2022/06/06 03:09:50;;;;;;;7.35;4.00;;;;;;;14.87;75.80;99580.59;5013685;28;20037;-62
2022/06/06 03:12:28;;;;;;;4.45;3.50;;;;;;;14.96;74.07;99581.97;5013579;28;20025;-61
2022/06/06 03:15:18;;;;;;;4.03;3.38;;;;;;;14.97;74.18;99587.13;5013777;28;20502;-62
2022/06/06 03:21:13;;;;;;;4.88;3.72;;;;;;;15.18;74.57;99592.38;5013157;28;20033;-62
2022/06/06 03:23:41;;;;;;;4.40;3.88;;;;;;;15.21;74.34;99589.63;5013557;28;20041;-62
2022/06/06 03:26:28;;;;;;;6.07;3.50;;;;;;;15.38;73.35;99590.66;5013511;28;20389;-62
2022/06/06 03:29:03;;;;;;;4.55;3.50;;;;;;;15.68;72.58;99583.28;5013137;28;20029;-62
2022/06/06 03:31:45;;;;;;;4.00;3.60;;;;;;;15.80;72.59;99582.75;5013359;28;20080;-62
2022/06/06 03:34:21;;;;;;;4.05;3.53;;;;;;;16.00;72.62;99578.38;5013511;28;20466;-63
2022/06/06 03:37:03;;;;;;;4.70;3.42;;;;;;;16.14;70.36;99534.19;5013304;28;20026;-61
2022/06/06 03:40:00;;;;;;;4.57;3.17;;;;;;;16.55;70.53;99580.19;5013086;28;20030;-61
2022/06/06 03:42:47;;;;;;;4.63;3.40;;;;;;;16.45;71.00;99584.19;5013144;28;20372;-62
2022/06/06 03:45:21;;;;;;;3.63;3.17;;;;;;;16.41;70.94;99593.09;5011726;28;20080;-62
2022/06/06 03:48:12;;;;;;;5.60;3.65;;;;;;;16.10;70.46;99540.47;5012683;28;20041;-62
2022/06/06 03:50:44;;;;;;;7.22;4.25;;;;;;;16.45;71.43;99597.25;5012261;28;20125;-62
2022/06/06 03:53:37;;;;;;;6.00;3.70;;;;;;;16.34;71.67;99609.03;5012919;28;20475;-62
2022/06/06 03:56:30;;;;;;;4.95;3.75;;;;;;;15.95;71.78;99549.88;4993340;28;20038;-63
2022/06/06 03:58:57;;;;;;;4.05;3.45;;;;;;;16.24;71.84;99584.25;5012374;28;20119;-62
2022/06/06 04:01:23;;;;;;;4.85;3.17;;;;;;;16.31;71.58;99580.44;5012775;28;20510;-62
2022/06/06 04:03:50;;;;;;;4.20;3.80;;;;;;;16.40;71.57;99589.59;5012845;28;20088;-64
2022/06/06 04:06:19;;;;;;;3.47;3.17;;;;;;;16.36;71.99;99585.44;5010760;28;20111;-61
2022/06/06 04:08:46;;;;;;;3.95;3.53;;;;;;;16.46;71.92;99584.09;5012415;28;20057;-61
2022/06/06 04:11:22;;;;;;;7.80;3.50;;;;;;;16.46;70.56;99575.38;5012789;28;20045;-60
2022/06/06 04:13:48;;;;;;;5.13;3.60;;;;;;;16.52;71.14;99590.81;5012565;28;20079;-61
2022/06/06 04:16:16;;;;;;;3.72;3.40;;;;;;;16.55;71.23;99591.50;5012477;28;20026;-62
2022/06/06 04:18:41;;;;;;;4.63;3.25;;;;;;;16.55;70.90;99588.88;5012522;28;20029;-61
2022/06/06 04:21:25;;;;;;;3.40;3.10;;;;;;;16.62;71.24;99591.22;5012522;28;20029;-61
2022/06/06 04:23:53;;;;;;;5.00;3.30;;;;;;;16.68;71.13;99589.13;5012026;28;20503;-62
2022/06/06 04:26:41;;;;;;;3.55;3.25;;;;;;;16.46;70.26;99541.41;5012270;28;20018;-61
2022/06/06 04:29:40;;;;;;;5.38;3.42;;;;;;;16.88;71.37;99588.19;5012665;28;20030;-61
2022/06/06 04:32:15;;;;;;;4.35;3.65;;;;;;;16.82;71.06;99575.38;4992813;28;20023;-61
2022/06/06 04:34:57;;;;;;;4.25;3.15;;;;;;;16.64;69.19;99547.53;5009674;28;20034;-61
2022/06/06 04:37:25;;;;;;;4.70;3.20;;;;;;;17.05;69.37;99599.59;5012195;28;20120;-62
2022/06/06 04:39:57;;;;;;;5.15;2.97;;;;;;;17.14;68.96;99603.53;5012086;28;20026;-62
2022/06/06 04:42:52;;;;;;;6.93;3.28;;;;;;;16.76;68.45;99557.41;5012244;28;20030;-62
2022/06/06 04:45:28;;;;;;;7.15;3.60;;;;;;;17.08;69.39;99604.69;5012237;28;20490;-62
2022/06/06 04:47:56;;;;;;;3.90;3.28;;;;;;;17.15;69.39;99610.47;5012108;28;20026;-62
2022/06/06 04:50:22;;;;;;;5.10;3.17;;;;;;;17.27;69.57;99619.47;5011706;28;20464;-62
2022/06/06 04:52:53;;;;;;;4.03;3.10;;;;;;;17.38;68.66;99618.00;5011942;28;20117;-63
2022/06/06 04:55:20;;;;;;;4.40;3.38;;;;;;;17.21;66.98;99582.19;5008416;28;20049;-62
2022/06/06 04:57:51;;;;;;;4.57;3.30;;;;;;;17.23;67.82;99582.97;5011901;28;20026;-63
2022/06/06 05:00:17;;;;;;;4.93;2.90;;;;;;;17.65;67.75;99624.53;5011890;28;20036;-63
2022/06/06 05:02:42;;;;;;;8.13;3.20;;;;;;;17.72;67.29;99625.91;5011843;28;20109;-64
2022/06/06 05:05:09;;;;;;;4.22;3.30;;;;;;;17.80;67.06;99633.34;5012438;28;20052;-62
2022/06/06 05:08:14;;;;;;;4.05;3.33;;;;;;;18.00;65.76;99614.84;5011960;28;20042;-63
2022/06/06 05:10:49;;;;;;;6.05;3.47;;;;;;;18.05;65.45;99620.66;5011649;28;20022;-62
2022/06/06 05:13:36;;;;;;;3.40;3.10;;;;;;;18.29;64.17;99620.28;5011674;28;20101;-62
2022/06/06 05:16:04;;;;;;;4.15;3.00;;;;;;;18.50;64.39;99628.75;5011688;28;20379;-62
2022/06/06 05:18:36;;;;;;;4.65;3.45;;;;;;;18.50;63.55;99630.50;5014614;28;20030;-63
2022/06/06 05:21:26;;;;;;;3.70;3.00;;;;;;;18.58;64.03;99628.31;5015961;28;20022;-62
2022/06/06 05:24:20;;;;;;;8.05;4.95;;;;;;;18.51;63.06;99629.59;5015709;28;20054;-63
2022/06/06 05:27:17;;;;;;;3.50;3.20;;;;;;;18.48;63.66;99627.97;5015470;28;20029;-63
2022/06/06 05:30:11;;;;;;;3.58;3.28;;;;;;;18.65;62.85;99631.44;5015301;28;20030;-63
2022/06/06 05:33:02;;;;;;;3.47;3.17;;;;;;;18.67;62.88;99638.31;5006777;28;20470;-62
2022/06/06 05:35:28;;;;;;;3.83;3.10;;;;;;;18.82;62.46;99639.22;5015380;28;20026;-62
2022/06/06 05:38:31;;;;;;;4.30;3.22;;;;;;;18.87;62.12;99642.47;5015051;28;20018;-62
2022/06/06 05:41:18;;;;;;;5.15;2.97;;;;;;;18.87;62.64;99647.72;5014134;28;20044;-62
2022/06/06 05:43:56;;;;;;;3.90;3.17;;;;;;;18.58;62.12;99600.34;5015410;28;20022;-63
2022/06/06 05:46:40;;;;;;;4.28;3.88;;;;;;;18.79;61.30;99639.41;5015033;28;20041;-63
2022/06/06 05:49:14;;;;;;;4.97;3.30;;;;;;;18.88;61.05;99644.13;5015218;28;20033;-62
2022/06/06 05:52:17;;;;;;;3.58;3.10;;;;;;;19.00;60.12;99650.50;5015196;28;20022;-63
2022/06/06 05:54:51;;;;;;;3.45;3.15;;;;;;;19.08;61.56;99643.03;5010576;28;20034;-62
2022/06/06 05:57:36;;;;;;;3.47;3.15;;;;;;;19.09;61.39;99646.50;5014867;28;20022;-63
2022/06/06 06:00:25;;;;;;;4.35;3.10;;;;;;;18.84;61.11;99595.38;5014818;28;20372;-62
2022/06/06 06:02:53;;;;;;;3.15;2.85;;;;;;;19.15;59.62;99646.13;5014835;28;20041;-62
2022/06/06 06:05:27;;;;;;;4.82;3.10;;;;;;;19.14;60.28;99655.78;5015395;28;20050;-62
2022/06/06 06:08:05;;;;;;;3.58;3.17;;;;;;;19.38;60.71;99643.94;5014619;28;20426;-62
2022/06/06 06:11:03;;;;;;;4.25;3.70;;;;;;;19.46;59.42;99642.56;5014774;28;20032;-62
2022/06/06 06:13:47;;;;;;;6.47;3.00;;;;;;;19.41;59.31;99641.13;5010498;28;20479;-62
2022/06/06 06:16:15;;;;;;;4.70;3.40;;;;;;;19.51;58.36;99649.31;5014748;28;20457;-63
2022/06/06 06:18:47;;;;;;;3.40;3.10;;;;;;;19.33;58.71;99602.19;5014042;28;20029;-61
2022/06/06 06:21:27;;;;;;;4.35;3.30;;;;;;;19.29;57.79;99595.44;5014693;28;20045;-61
2022/06/06 06:24:02;;;;;;;3.90;3.20;;;;;;;19.69;58.69;99642.13;5014578;28;20556;-63
2022/06/06 06:26:33;;;;;;;5.72;3.35;;;;;;;19.61;58.04;99643.44;5014955;28;20055;-64
2022/06/06 06:29:03;;;;;;;3.85;3.30;;;;;;;19.41;56.98;99599.09;5013505;28;20345;-62
2022/06/06 06:31:47;;;;;;;3.58;3.10;;;;;;;19.82;57.80;99641.34;5014490;28;20026;-63
2022/06/06 06:34:41;;;;;;;5.25;3.03;;;;;;;19.93;58.37;99629.31;5014109;28;20049;-61
2022/06/06 06:37:25;;;;;;;3.60;3.30;;;;;;;19.96;58.43;99623.88;5013828;28;20030;-61
2022/06/06 06:40:00;;;;;;;3.90;3.17;;;;;;;20.08;58.12;99620.50;5013682;28;20026;-62
2022/06/06 06:42:42;;;;;;;6.03;3.30;;;;;;;20.03;57.59;99612.03;5014292;28;20042;-62
2022/06/06 06:45:18;;;;;;;5.13;3.55;;;;;;;19.85;56.17;99569.31;5013852;28;20077;-63
2022/06/06 06:47:50;;;;;;;5.10;3.22;;;;;;;20.25;55.87;99623.84;5014226;28;20034;-62
2022/06/06 06:50:30;;;;;;;6.32;3.20;;;;;;;20.17;56.98;99635.69;5014251;28;20483;-62
2022/06/06 06:53:05;;;;;;;4.38;3.00;;;;;;;20.15;56.79;99620.94;5013988;28;20046;-62
2022/06/06 06:56:29;;;;;;;3.70;3.25;;;;;;;19.92;55.28;99582.94;5013860;28;20040;-62
2022/06/06 06:59:19;;;;;;;3.58;3.28;;;;;;;20.12;56.03;99626.38;4953100;29;20377;-61
2022/06/06 07:11:00;;;;;;;3.75;3.17;;;;;;;20.33;54.01;99621.56;5009760;28;20034;-63
2022/06/06 07:13:46;;;;;;;3.45;3.15;;;;;;;20.27;53.64;99632.50;5013483;28;20017;-62
2022/06/06 07:16:22;;;;;;;4.88;3.70;;;;;;;20.09;53.72;99632.69;5012055;28;20054;-62
2022/06/06 07:18:55;;;;;;;3.63;3.15;;;;;;;19.63;53.70;99581.13;5010999;28;20028;-62
2022/06/06 07:21:23;;;;;;;3.70;3.38;;;;;;;19.98;54.58;99620.22;5012336;28;20026;-61
2022/06/06 07:23:49;;;;;;;3.95;3.53;;;;;;;20.15;55.58;99624.44;5013302;28;20030;-63
2022/06/06 07:26:16;;;;;;;4.03;3.00;;;;;;;19.83;53.73;99592.22;5013545;28;20490;-63
2022/06/06 07:28:41;;;;;;;4.65;2.92;;;;;;;19.89;54.03;99633.06;5010374;28;20033;-62
2022/06/06 07:31:35;;;;;;;4.07;2.95;;;;;;;19.97;54.40;99651.84;5010560;28;20030;-63
2022/06/06 07:34:06;;;;;;;4.13;3.08;;;;;;;19.90;55.22;99629.50;5013739;28;20025;-61
2022/06/06 07:36:44;;;;;;;3.38;3.08;;;;;;;19.78;55.14;99634.53;5012535;28;20107;-63
2022/06/06 07:39:51;;;;;;;4.85;3.58;;;;;;;19.76;56.07;99639.03;5013640;28;20061;-63
2022/06/06 07:42:41;;;;;;;5.30;3.40;;;;;;;19.89;55.72;99635.69;5012907;28;20022;-63
2022/06/06 07:45:30;;;;;;;4.13;3.17;;;;;;;19.97;55.06;99626.41;5013230;28;20426;-62
2022/06/06 07:48:02;;;;;;;3.65;3.10;;;;;;;20.16;54.04;99633.97;5013547;28;20041;-61
2022/06/06 07:50:50;;;;;;;3.03;2.75;;;;;;;20.22;53.35;99624.88;5013508;28;20037;-62
2022/06/06 07:53:34;;;;;;;6.03;3.28;;;;;;;20.22;54.55;99622.25;4982999;28;20502;-62
2022/06/06 07:56:06;;;;;;;4.93;3.00;;;;;;;20.04;54.33;99616.34;5011798;28;20503;-61
2022/06/06 07:58:50;;;;;;;2.67;2.47;;;;;;;19.93;54.56;99622.25;5013208;28;20100;-62
2022/06/06 08:01:24;;;;;;;4.00;3.08;;;;;;;19.62;55.06;99575.97;5013177;28;20033;-61
2022/06/06 08:03:56;;;;;;;4.15;3.08;;;;;;;20.09;55.29;99640.56;5013359;28;20052;-62
2022/06/06 08:06:43;;;;;;;3.13;2.83;;;;;;;20.23;53.47;99625.72;5012993;28;20037;-61
2022/06/06 08:09:32;;;;;;;5.30;3.20;;;;;;;20.44;53.86;99619.09;4998794;28;20030;-62
2022/06/06 08:12:18;;;;;;;4.35;2.90;;;;;;;20.56;52.20;99608.75;5012486;28;20026;-62
2022/06/06 08:14:47;;;;;;;4.30;2.65;;;;;;;20.66;50.42;99609.84;5010534;28;20618;-62
2022/06/06 08:17:26;;;;;;;4.43;2.70;;;;;;;20.75;52.36;99600.53;5009033;28;20056;-62
2022/06/06 08:20:02;;;;;;;2.70;2.50;;;;;;;20.32;51.81;99551.50;5013048;28;20072;-61
2022/06/06 08:22:30;;;;;;;2.85;2.55;;;;;;;20.30;52.39;99598.94;5013147;28;20021;-61
2022/06/06 08:24:58;;;;;;;5.85;2.30;;;;;;;20.24;51.59;99614.28;5013139;28;20475;-61
2022/06/06 08:27:26;;;;;;;5.05;3.55;;;;;;;20.03;52.77;99554.19;5012933;28;20041;-62
2022/06/06 08:29:52;;;;;;;6.70;2.97;;;;;;;20.25;54.05;99597.53;5012671;28;20038;-63
2022/06/06 08:32:18;;;;;;;4.10;2.70;;;;;;;20.42;54.52;99597.34;5013160;28;20080;-63
2022/06/06 08:34:44;;;;;;;3.33;2.65;;;;;;;20.52;54.41;99587.91;5012668;28;20479;-63
2022/06/06 08:37:21;;;;;;;3.78;2.90;;;;;;;20.67;52.71;99603.66;5012506;28;20105;-61
2022/06/06 08:40:26;;;;;;;5.80;2.90;;;;;;;20.66;53.36;99554.56;5009559;28;20038;-63
2022/06/06 08:43:10;;;;;;;4.65;2.75;;;;;;;20.96;50.50;99600.91;5012406;28;20034;-63
2022/06/06 08:46:06;;;;;;;4.47;2.25;;;;;;;21.16;47.34;99602.22;5012637;28;20018;-63
2022/06/06 08:49:02;;;;;;;6.07;2.35;;;;;;;21.32;47.88;99596.75;5012396;28;20025;-62
2022/06/06 08:52:03;;;;;;;2.70;2.30;;;;;;;21.49;49.13;99599.09;5012172;28;20547;-62
2022/06/06 08:54:44;;;;;;;2.50;2.30;;;;;;;21.61;49.76;99579.00;5003404;28;20042;-63
2022/06/06 08:57:18;;;;;;;2.88;2.65;;;;;;;21.42;50.75;99586.44;5016542;28;22106;-63
2022/06/06 09:00:08;;;;;;;3.25;2.92;;;;;;;21.31;51.06;99589.81;5016812;28;20040;-62
2022/06/06 09:02:52;;;;;;;3.13;2.80;;;;;;;21.29;51.79;99591.69;5016717;28;20372;-63
2022/06/06 09:05:20;;;;;;;2.97;2.53;;;;;;;21.32;48.94;99583.56;4997214;28;20209;-63
2022/06/06 09:08:07;;;;;;;2.83;2.50;;;;;;;21.48;52.01;99580.75;5012338;28;20038;-62
2022/06/06 09:10:47;;;;;;;3.85;2.60;;;;;;;21.51;52.06;99580.56;5016263;28;20026;-63
2022/06/06 09:14:00;;;;;;;3.67;2.90;;;;;;;21.14;48.59;99575.97;5016567;28;20029;-62
2022/06/06 09:16:57;;;;;;;3.45;2.53;;;;;;;21.12;48.50;99584.94;4970758;28;20038;-62
2022/06/06 09:19:41;;;;;;;3.58;2.15;;;;;;;21.12;47.82;99580.53;5015133;28;20030;-62
2022/06/06 09:22:38;;;;;;;3.47;2.53;;;;;;;21.11;49.59;99572.72;5016372;28;20364;-62
2022/06/06 09:25:47;;;;;;;3.10;2.40;;;;;;;21.35;49.33;99584.22;4996697;28;20038;-62
2022/06/06 09:28:32;;;;;;;6.60;2.38;;;;;;;21.34;46.84;99586.97;5006445;28;20040;-63
2022/06/06 09:31:17;;;;;;;3.25;2.33;;;;;;;21.46;47.87;99577.38;5016009;28;20754;-63
2022/06/06 09:34:22;;;;;;;2.00;1.90;;;;;;;21.55;46.46;99587.34;5005487;28;20070;-63
2022/06/06 09:36:47;;;;;;;4.75;2.50;;;;;;;21.51;46.83;99584.03;5012884;28;20042;-62
2022/06/06 09:39:31;;;;;;;5.20;2.38;;;;;;;21.41;48.30;99590.88;5015461;28;20152;-62
2022/06/06 09:42:00;;;;;;;2.90;2.22;;;;;;;21.42;49.07;99583.81;5026757;28;20130;-62
2022/06/06 09:44:38;;;;;;;5.63;2.30;;;;;;;21.38;46.64;99588.44;5015892;28;20100;-62
2022/06/06 09:47:40;;;;;;;3.85;2.25;;;;;;;21.31;46.46;99589.81;5015518;28;20909;-62
2022/06/06 09:50:18;;;;;;;3.70;2.30;;;;;;;21.49;47.58;99599.09;5015779;28;20430;-63
2022/06/06 09:53:26;;;;;;;2.20;2.10;;;;;;;21.61;46.48;99584.25;5013949;28;20068;-62
2022/06/06 09:59:30;;;;;;;2.42;2.20;;;;;;;21.73;47.17;99574.66;5014359;28;20029;-61
2022/06/06 10:02:14;;;;;;;5.18;2.25;;;;;;;21.63;47.35;99579.72;5014440;28;20040;-63
2022/06/06 10:04:58;;;;;;;4.05;2.38;;;;;;;21.50;48.49;99574.41;5014112;28;20056;-65
2022/06/06 10:07:46;;;;;;;4.45;2.35;;;;;;;21.37;46.30;99579.69;5014990;28;20038;-61
2022/06/06 10:10:27;;;;;;;2.90;2.00;;;;;;;21.19;47.71;99588.84;5013050;28;20506;-62
2022/06/06 10:13:10;;;;;;;5.15;2.50;;;;;;;21.07;46.80;99579.16;5011581;28;20022;-62
2022/06/06 10:15:55;;;;;;;4.55;2.22;;;;;;;21.09;46.96;99588.63;5013335;28;20494;-62
2022/06/06 10:18:58;;;;;;;4.07;1.83;;;;;;;20.95;47.20;99580.78;5014092;28;20061;-62
2022/06/06 10:21:42;;;;;;;3.55;1.92;;;;;;;20.98;46.90;99577.97;5013973;28;20487;-62
2022/06/06 10:24:45;;;;;;;6.07;2.17;;;;;;;20.91;46.97;99576.66;5012232;28;20488;-63
2022/06/06 10:27:38;;;;;;;4.32;2.72;;;;;;;20.95;46.00;99568.47;5010985;28;20101;-62
2022/06/06 10:30:13;;;;;;;4.03;2.55;;;;;;;21.17;46.61;99570.50;5014086;28;20395;-62
2022/06/06 10:32:57;;;;;;;4.70;2.50;;;;;;;21.38;47.33;99567.38;5014299;28;20428;-62
2022/06/06 10:36:14;;;;;;;3.60;2.65;;;;;;;21.43;48.28;99565.25;5013828;28;20026;-62
2022/06/06 10:38:54;;;;;;;4.78;2.47;;;;;;;21.72;47.96;99558.00;5013127;28;20103;-63
2022/06/06 10:41:46;;;;;;;2.50;2.10;;;;;;;21.78;48.34;99555.91;5014686;28;20030;-62
2022/06/06 10:44:29;;;;;;;3.17;2.10;;;;;;;21.84;46.81;99552.81;5014793;28;20399;-62
2022/06/06 10:47:14;;;;;;;3.13;2.10;;;;;;;21.86;46.43;99546.50;5014036;28;20034;-62
2022/06/06 10:50:07;;;;;;;4.10;2.35;;;;;;;21.63;46.95;99503.28;5008760;28;20026;-62
2022/06/06 10:52:48;;;;;;;5.85;2.58;;;;;;;21.76;46.13;99561.25;5014616;28;20379;-63
2022/06/06 10:55:44;;;;;;;7.22;2.45;;;;;;;21.71;45.36;99558.13;5012891;28;20064;-63
2022/06/06 10:58:18;;;;;;;4.65;2.33;;;;;;;21.51;46.39;99565.59;5012097;28;20030;-62
2022/06/06 11:01:21;;;;;;;4.05;2.40;;;;;;;21.41;46.09;99559.25;5011953;28;20029;-62
2022/06/06 11:03:50;;;;;;;6.10;2.00;;;;;;;21.42;46.52;99560.94;5001331;28;20506;-62
2022/06/06 11:06:45;;;;;;;2.70;1.83;;;;;;;21.53;45.85;99542.63;5013962;28;20038;-64
2022/06/06 11:09:26;;;;;;;6.28;1.92;;;;;;;21.74;44.93;99552.63;5013742;28;20080;-62
2022/06/06 11:12:16;;;;;;;6.07;2.08;;;;;;;21.57;44.04;99508.16;5013479;28;20386;-62
2022/06/06 11:14:46;;;;;;;4.43;2.90;;;;;;;21.64;46.14;99502.34;5013520;28;20487;-62
2022/06/06 11:17:14;;;;;;;2.40;2.10;;;;;;;21.86;46.17;99554.41;4996924;28;20165;-62
2022/06/06 11:20:00;;;;;;;4.28;2.30;;;;;;;21.65;45.77;99519.84;5008226;28;20041;-62
2022/06/06 11:22:26;;;;;;;4.40;2.00;;;;;;;21.94;45.98;99540.66;5013772;28;20037;-63
2022/06/06 11:25:11;;;;;;;3.97;2.13;;;;;;;22.01;45.51;99531.34;5013916;28;20026;-63
2022/06/06 11:28:04;;;;;;;3.53;2.50;;;;;;;21.94;45.09;99513.47;5013518;28;20403;-63
2022/06/06 11:30:54;;;;;;;2.58;1.90;;;;;;;22.05;45.32;99532.00;5011358;28;20029;-62
2022/06/06 11:33:57;;;;;;;2.67;2.30;;;;;;;21.99;46.13;99529.78;5013403;28;20026;-62
2022/06/06 11:36:50;;;;;;;3.53;2.10;;;;;;;21.91;44.68;99527.69;5012263;28;20025;-63
2022/06/06 11:39:47;;;;;;;4.05;2.20;;;;;;;21.87;44.95;99518.31;5013002;28;20116;-61
2022/06/06 11:42:12;;;;;;;4.53;1.90;;;;;;;21.93;45.87;99514.41;4995519;28;20030;-62
2022/06/06 11:45:05;;;;;;;2.65;1.90;;;;;;;21.98;45.40;99509.66;5012250;28;20116;-62
2022/06/06 11:47:43;;;;;;;3.05;2.20;;;;;;;22.05;47.83;99509.09;4994082;28;20042;-62
2022/06/06 11:50:23;;;;;;;5.53;2.30;;;;;;;22.18;46.51;99505.56;5009932;28;20037;-62
2022/06/06 11:53:01;;;;;;;3.15;2.15;;;;;;;22.28;45.09;99506.56;5012473;28;20034;-62
2022/06/06 11:56:06;;;;;;;4.00;1.75;;;;;;;22.42;44.17;99502.97;5013087;28;20037;-61
2022/06/06 11:58:45;;;;;;;5.13;1.65;;;;;;;22.15;42.84;99469.69;5013024;28;20034;-62
2022/06/06 12:01:32;;;;;;;1.88;1.52;;;;;;;22.47;42.13;99507.88;5013051;28;20082;-62
2022/06/06 12:04:37;;;;;;;4.75;1.50;;;;;;;22.20;40.58;99503.66;5013026;28;20129;-62
2022/06/06 12:07:23;;;;;;;4.63;1.55;;;;;;;22.20;39.91;99504.50;4952446;29;20043;-63
2022/06/06 12:09:51;;;;;;;2.03;1.50;;;;;;;22.18;39.89;99511.69;4952624;29;20031;-62
2022/06/06 12:12:51;;;;;;;2.28;1.40;;;;;;;22.31;40.95;99500.22;4990442;28;20120;-62
2022/06/06 12:15:22;;;;;;;3.38;1.73;;;;;;;22.46;41.55;99493.00;5013190;28;20042;-62
2022/06/06 12:18:20;;;;;;;5.05;1.67;;;;;;;22.20;40.94;99443.84;5013225;28;20049;-62
2022/06/06 12:20:58;;;;;;;3.00;1.60;;;;;;;22.42;41.11;99495.03;4993540;28;20443;-61
2022/06/06 12:23:48;;;;;;;3.03;1.52;;;;;;;22.46;42.35;99495.63;5012230;28;20022;-61
2022/06/06 12:26:19;;;;;;;3.80;1.55;;;;;;;22.39;40.16;99490.00;5012212;28;20029;-61
2022/06/06 12:29:09;;;;;;;4.22;1.70;;;;;;;22.22;39.03;99494.66;5012998;28;20037;-63
2022/06/06 12:32:19;;;;;;;3.00;1.48;;;;;;;22.13;39.24;99487.41;5012556;28;20034;-62
2022/06/06 12:34:44;;;;;;;2.78;1.40;;;;;;;22.26;40.72;99481.25;4999497;28;20466;-62
2022/06/06 12:37:24;;;;;;;2.70;1.45;;;;;;;21.95;39.78;99434.22;5009414;28;20030;-61
2022/06/06 12:40:06;;;;;;;3.25;1.63;;;;;;;22.24;42.86;99479.56;5007010;28;20110;-62
2022/06/06 12:42:43;;;;;;;;;;;;;;;22.19;40.24;99481.72;5009239;28;20066;-60
2022/06/06 12:45:47;;;;;;;3.28;1.58;;;;;;;22.23;39.46;99484.94;5025020;28;20366;-62
2022/06/06 12:48:33;;;;;;;2.30;1.60;;;;;;;22.33;40.52;99486.00;5011387;28;20126;-61